createdAt,value
2017-09-05T00:01:05.094Z,66.33
2017-09-05T00:02:14.806Z,67.29
2017-09-05T00:03:25.143Z,66.33
2017-09-05T00:04:35.169Z,66.46
2017-09-05T00:05:45.606Z,66.9
2017-09-05T00:06:59.290Z,66.9
2017-09-05T00:08:09.640Z,66.84
2017-09-05T00:09:22.214Z,66.61
2017-09-05T00:10:32.234Z,66.9
2017-09-05T00:11:44.062Z,67.19
2017-09-05T00:12:54.413Z,66.33
2017-09-05T00:14:05.717Z,66.61
2017-09-05T00:15:16.071Z,66.71
2017-09-05T00:16:28.218Z,66.33
2017-09-05T00:17:38.564Z,66.33
2017-09-05T00:18:48.903Z,66.33
2017-09-05T00:19:59.517Z,66.42
2017-09-05T00:21:09.686Z,66.52
2017-09-05T00:22:20.682Z,66.23
2017-09-05T00:23:31.013Z,67.09
2017-09-05T00:24:41.357Z,66.8
2017-09-05T00:25:51.707Z,66.8
2017-09-05T00:27:02.035Z,66.61
2017-09-05T00:28:12.085Z,66.71
2017-09-05T00:29:22.163Z,66.71
2017-09-05T00:30:33.962Z,67
2017-09-05T00:31:44.296Z,66.71
2017-09-05T00:32:54.638Z,66.9
2017-09-05T00:34:06.189Z,66.8
2017-09-05T00:35:17.491Z,67.09
2017-09-05T00:36:27.832Z,66.9
2017-09-05T00:37:38.171Z,66.8
2017-09-05T00:38:49.947Z,66.8
2017-09-05T00:40:00.278Z,66.9
2017-09-05T00:41:10.300Z,66.8
2017-09-05T00:42:20.645Z,66.8
2017-09-05T00:43:31.003Z,66.8
2017-09-05T00:44:41.036Z,66.8
2017-09-05T00:45:52.817Z,66.9
2017-09-05T00:47:03.159Z,66.9
2017-09-05T00:48:12.866Z,67
2017-09-05T00:49:22.893Z,66.71
2017-09-05T00:50:33.240Z,66.71
2017-09-05T00:51:44.580Z,66.42
2017-09-05T00:52:54.931Z,66.71
2017-09-05T00:54:05.285Z,67.19
2017-09-05T00:55:15.320Z,66.39
2017-09-05T00:56:25.659Z,66.86
2017-09-05T00:57:36.001Z,66.67
2017-09-05T00:58:46.342Z,66.77
2017-09-05T00:59:56.370Z,66.9
2017-09-05T01:01:06.399Z,67
2017-09-05T01:02:16.732Z,66.77
2017-09-05T01:03:27.090Z,66.61
2017-09-05T01:04:37.460Z,66.77
2017-09-05T01:05:48.647Z,67.16
2017-09-05T01:06:59.740Z,67.25
2017-09-05T01:08:10.904Z,66.86
2017-09-05T01:09:20.923Z,66.86
2017-09-05T01:10:31.963Z,66.86
2017-09-05T01:11:42.238Z,67.25
2017-09-05T01:12:54.005Z,66.86
2017-09-05T01:14:08.762Z,67.16
2017-09-05T01:15:21.288Z,66.86
2017-09-05T01:16:35.782Z,67.16
2017-09-05T01:17:46.611Z,67.16
2017-09-05T01:18:59.769Z,66.77
2017-09-05T01:20:11.571Z,66.77
2017-09-05T01:21:21.927Z,66.67
2017-09-05T01:22:32.319Z,66.58
2017-09-05T01:23:43.602Z,66.77
2017-09-05T01:24:54.097Z,67.06
2017-09-05T01:26:05.538Z,67.25
2017-09-05T01:27:15.884Z,66.86
2017-09-05T01:28:26.002Z,67.25
2017-09-05T01:29:36.340Z,66.58
2017-09-05T01:30:46.665Z,66.86
2017-09-05T01:31:56.684Z,66.67
2017-09-05T01:33:07.029Z,67.35
2017-09-05T01:34:17.397Z,66.67
2017-09-05T01:35:27.744Z,66.29
2017-09-05T01:36:38.724Z,66.29
2017-09-05T01:37:49.648Z,66.67
2017-09-05T01:38:59.992Z,67.54
2017-09-05T01:40:10.341Z,66.58
2017-09-05T01:41:20.697Z,66.67
2017-09-05T01:42:36.035Z,66.96
2017-09-05T01:43:46.385Z,66.77
2017-09-05T01:44:58.599Z,66.58
2017-09-05T01:46:11.189Z,66.58
2017-09-05T01:47:21.528Z,66.77
2017-09-05T01:48:31.880Z,66.67
2017-09-05T01:49:42.670Z,66.58
2017-09-05T01:50:52.742Z,66.39
2017-09-05T01:52:09.698Z,66.58
2017-09-05T01:53:20.052Z,66.86
2017-09-05T01:54:31.203Z,66.49
2017-09-05T01:55:43.083Z,66.77
2017-09-05T01:56:54.422Z,66.86
2017-09-05T01:58:04.769Z,66.49
2017-09-05T01:59:15.108Z,66.67
2017-09-05T02:00:24.824Z,66.67
2017-09-05T02:01:35.226Z,66.58
2017-09-05T02:02:45.710Z,66.67
2017-09-05T02:03:56.061Z,66.67
2017-09-05T02:05:08.502Z,66.67
2017-09-05T02:06:20.981Z,66.67
2017-09-05T02:07:33.404Z,66.77
2017-09-05T02:08:43.782Z,66.9
2017-09-05T02:10:00.585Z,67.09
2017-09-05T02:11:12.266Z,66.8
2017-09-05T02:12:22.628Z,66.9
2017-09-05T02:13:32.967Z,66.67
2017-09-05T02:14:43.313Z,67.25
2017-09-05T02:15:53.640Z,66.67
2017-09-05T02:17:05.695Z,66.67
2017-09-05T02:18:18.142Z,66.49
2017-09-05T02:19:28.621Z,66.49
2017-09-05T02:20:38.640Z,66.77
2017-09-05T02:21:49.832Z,66.96
2017-09-05T02:22:59.840Z,66.77
2017-09-05T02:24:11.885Z,66.58
2017-09-05T02:25:21.592Z,66.67
2017-09-05T02:26:31.920Z,66.58
2017-09-05T02:27:41.631Z,66.77
2017-09-05T02:28:54.453Z,66.67
2017-09-05T02:30:07.156Z,66.77
2017-09-05T02:31:19.352Z,66.77
2017-09-05T02:32:29.699Z,66.77
2017-09-05T02:33:42.252Z,67.16
2017-09-05T02:34:52.373Z,67.25
2017-09-05T02:36:04.126Z,67.16
2017-09-05T02:37:15.612Z,66.83
2017-09-05T02:38:25.958Z,67.22
2017-09-05T02:39:36.296Z,66.83
2017-09-05T02:40:46.640Z,66.93
2017-09-05T02:41:56.715Z,66.83
2017-09-05T02:43:09.285Z,67.41
2017-09-05T02:44:19.467Z,67.32
2017-09-05T02:45:29.489Z,67.32
2017-09-05T02:46:39.496Z,67.32
2017-09-05T02:47:49.581Z,67.12
2017-09-05T02:49:00.549Z,67.41
2017-09-05T02:50:11.099Z,67.41
2017-09-05T02:51:21.146Z,67.38
2017-09-05T02:52:31.181Z,67.28
2017-09-05T02:53:41.586Z,67.5
2017-09-05T02:54:51.918Z,67.32
2017-09-05T02:56:04.522Z,66.8
2017-09-05T02:57:14.557Z,66.71
2017-09-05T02:58:24.887Z,67.38
2017-09-05T02:59:34.347Z,67.28
2017-09-05T03:00:44.381Z,66.8
2017-09-05T03:01:54.403Z,66.89
2017-09-05T03:33:39.293Z,64.94
2017-09-05T03:34:49.664Z,65.48
2017-09-05T03:35:59.996Z,65.77
2017-09-05T03:37:10.342Z,66.63
2017-09-05T03:38:20.358Z,66.53
2017-09-05T03:39:30.733Z,67.21
2017-09-05T03:40:40.761Z,66.82
2017-09-05T03:41:51.097Z,67.43
2017-09-05T03:43:01.437Z,67.33
2017-09-05T03:44:11.772Z,67.14
2017-09-05T03:45:23.622Z,67.05
2017-09-05T03:46:33.966Z,67.27
2017-09-05T03:47:44.302Z,66.89
2017-09-05T03:48:54.320Z,67.55
2017-09-05T03:50:04.662Z,67.78
2017-09-05T03:51:15.059Z,66.92
2017-09-05T03:52:25.389Z,67.11
2017-09-05T03:53:35.746Z,67.11
2017-09-05T03:54:45.772Z,67.21
2017-09-05T03:55:56.128Z,67.02
2017-09-05T03:57:06.524Z,67.21
2017-09-05T03:58:16.868Z,67.34
2017-09-05T03:59:27.200Z,67.53
2017-09-05T04:00:37.544Z,67.14
2017-09-05T04:01:47.863Z,67.24
2017-09-05T04:02:57.581Z,67.14
2017-09-05T04:04:07.917Z,67.14
2017-09-05T04:05:17.961Z,67.24
2017-09-05T04:06:28.297Z,66.67
2017-09-05T04:07:38.647Z,67.18
2017-09-05T04:08:48.663Z,67.08
2017-09-05T04:09:59.002Z,66.7
2017-09-05T04:11:09.370Z,66.89
2017-09-05T04:12:19.721Z,66.7
2017-09-05T04:13:30.061Z,66.7
2017-09-05T04:14:43.024Z,66.61
2017-09-05T04:15:53.356Z,66.61
2017-09-05T04:17:03.387Z,66.41
2017-09-05T04:18:13.928Z,66.61
2017-09-05T04:19:24.260Z,66.61
2017-09-05T04:20:34.663Z,66.32
2017-09-05T04:21:44.368Z,66.51
2017-09-05T04:22:54.391Z,66.45
2017-09-05T04:24:04.422Z,66.35
2017-09-05T04:25:14.775Z,66.83
2017-09-05T04:26:24.794Z,66.93
2017-09-05T04:27:35.131Z,66.64
2017-09-05T04:28:45.494Z,66.25
2017-09-05T04:29:55.831Z,66.35
2017-09-05T04:31:05.537Z,66.38
2017-09-05T04:32:15.921Z,66.16
2017-09-05T04:33:25.963Z,66
2017-09-05T04:34:36.303Z,66.48
2017-09-05T04:35:46.659Z,65.52
2017-09-05T04:36:57.017Z,65.42
2017-09-05T04:38:07.368Z,65.62
2017-09-05T04:39:17.423Z,65.71
2017-09-05T04:40:27.769Z,65.84
2017-09-05T04:41:38.120Z,65.65
2017-09-05T04:42:48.475Z,65.75
2017-09-05T04:43:58.554Z,65.65
2017-09-05T04:45:11.060Z,65.65
2017-09-05T04:46:21.610Z,65.01
2017-09-05T04:47:31.962Z,64.66
2017-09-05T04:48:42.318Z,64.66
2017-09-05T04:49:52.723Z,64.28
2017-09-05T04:51:03.095Z,63.83
2017-09-05T04:52:13.460Z,63.76
2017-09-05T04:53:23.802Z,63.67
2017-09-05T04:54:34.174Z,63.99
2017-09-05T04:55:44.210Z,63.73
2017-09-05T04:56:54.547Z,64.12
2017-09-05T04:58:04.895Z,63.73
2017-09-05T04:59:15.246Z,64.31
2017-09-05T05:00:25.588Z,64.6
2017-09-05T05:01:35.972Z,64.31
2017-09-05T05:02:46.335Z,64.82
2017-09-05T05:03:56.689Z,65.11
2017-09-05T05:05:07.043Z,65.2
2017-09-05T05:06:18.952Z,65.5
2017-09-05T05:07:28.719Z,66.61
2017-09-05T05:08:38.751Z,66.81
2017-09-05T05:09:48.468Z,66.91
2017-09-05T05:10:58.820Z,66.81
2017-09-05T05:12:09.170Z,66.97
2017-09-05T05:13:19.537Z,66.58
2017-09-05T05:14:29.582Z,66.87
2017-09-05T05:15:39.929Z,66.49
2017-09-05T05:16:50.286Z,66.58
2017-09-05T05:18:00.640Z,66.77
2017-09-05T05:19:10.971Z,66.58
2017-09-05T05:20:21.342Z,66.68
2017-09-05T05:21:31.685Z,67.07
2017-09-05T05:22:42.016Z,66.39
2017-09-05T05:23:52.358Z,67.25
2017-09-05T05:25:02.725Z,66.77
2017-09-05T05:26:13.091Z,66.49
2017-09-05T05:27:23.438Z,66.77
2017-09-05T05:28:33.780Z,66.77
2017-09-05T05:29:44.119Z,67.07
2017-09-05T05:30:54.468Z,66.77
2017-09-05T05:32:04.844Z,66.77
2017-09-05T05:33:14.882Z,66.58
2017-09-05T05:34:25.229Z,66.58
2017-09-05T05:35:35.562Z,66.77
2017-09-05T05:36:45.932Z,66.71
2017-09-05T05:37:56.299Z,66.77
2017-09-05T05:39:06.651Z,66.61
2017-09-05T05:40:17.002Z,66.81
2017-09-05T05:41:27.014Z,66.68
2017-09-05T05:42:37.356Z,66.58
2017-09-05T05:43:47.058Z,66.52
2017-09-05T05:44:57.391Z,67.1
2017-09-05T05:46:07.738Z,66.52
2017-09-05T05:47:17.753Z,66.81
2017-09-05T05:48:28.100Z,67
2017-09-05T05:49:38.152Z,67.16
2017-09-05T05:50:48.184Z,66.81
2017-09-05T05:51:58.257Z,66.81
2017-09-05T05:53:08.316Z,67.16
2017-09-05T05:54:18.672Z,66.81
2017-09-05T05:55:29.021Z,67.19
2017-09-05T05:56:39.398Z,67.16
2017-09-05T05:57:50.540Z,66.87
2017-09-05T05:59:00.886Z,66.61
2017-09-05T06:00:11.259Z,66.81
2017-09-05T06:01:21.594Z,66.81
2017-09-05T06:02:33.011Z,66.23
2017-09-05T06:03:43.421Z,66.81
2017-09-05T06:04:53.766Z,66.61
2017-09-05T06:06:03.794Z,66.52
2017-09-05T06:07:16.911Z,66.42
2017-09-05T06:08:27.258Z,66.42
2017-09-05T06:09:37.019Z,66.36
2017-09-05T06:10:47.367Z,65.78
2017-09-05T06:12:00.283Z,65.88
2017-09-05T06:13:10.640Z,65.78
2017-09-05T06:14:20.998Z,65.78
2017-09-05T06:15:31.360Z,65.78
2017-09-05T06:16:41.708Z,65.81
2017-09-05T06:17:52.047Z,66.01
2017-09-05T06:19:02.396Z,66.01
2017-09-05T06:20:12.754Z,65.91
2017-09-05T06:21:22.852Z,66.01
2017-09-05T06:22:33.216Z,66.1
2017-09-05T06:23:43.562Z,65.72
2017-09-05T06:24:53.275Z,65.81
2017-09-05T06:26:03.610Z,66.04
2017-09-05T06:27:14.000Z,66.04
2017-09-05T06:28:24.786Z,66.14
2017-09-05T06:29:35.137Z,66.04
2017-09-05T06:30:45.493Z,65.66
2017-09-05T06:31:55.215Z,65.78
2017-09-05T06:33:05.553Z,65.69
2017-09-05T06:34:15.921Z,66.07
2017-09-05T06:35:26.264Z,65.98
2017-09-05T06:36:36.625Z,66.01
2017-09-05T06:37:46.670Z,66.11
2017-09-05T06:38:57.078Z,66.11
2017-09-05T06:40:07.117Z,66.2
2017-09-05T06:41:17.471Z,65.53
2017-09-05T06:42:27.508Z,65.56
2017-09-05T06:43:37.863Z,65.47
2017-09-05T06:44:47.912Z,65.56
2017-09-05T06:45:58.288Z,65.4
2017-09-05T06:47:08.017Z,65.88
2017-09-05T06:48:18.056Z,65.59
2017-09-05T06:49:28.397Z,65.59
2017-09-05T06:50:38.156Z,65.69
2017-09-05T06:51:48.497Z,65.88
2017-09-05T06:52:58.859Z,66.08
2017-09-05T06:54:09.194Z,66.01
2017-09-05T06:55:18.902Z,65.91
2017-09-05T06:56:29.292Z,66.01
2017-09-05T06:57:39.639Z,66.01
2017-09-05T06:58:49.376Z,66.2
2017-09-05T06:59:59.410Z,65.63
2017-09-05T07:01:09.774Z,65.91
2017-09-05T07:02:19.809Z,66.11
2017-09-05T07:03:29.528Z,66.88
2017-09-05T07:04:39.866Z,66.69
2017-09-05T07:05:50.214Z,66.69
2017-09-05T07:07:00.596Z,66.4
2017-09-05T07:08:10.990Z,66.11
2017-09-05T07:09:21.325Z,65.91
2017-09-05T07:10:31.689Z,65.47
2017-09-05T07:11:41.710Z,65.3
2017-09-05T07:12:52.075Z,65.01
2017-09-05T07:14:02.486Z,65.11
2017-09-05T07:15:12.854Z,64.63
2017-09-05T07:16:23.200Z,65.3
2017-09-05T07:17:33.551Z,65.2
2017-09-05T07:18:43.901Z,65.69
2017-09-05T07:19:54.250Z,65.82
2017-09-05T07:21:04.595Z,65.5
2017-09-05T07:22:14.613Z,65.69
2017-09-05T07:23:24.340Z,66.08
2017-09-05T07:24:34.696Z,65.88
2017-09-05T07:25:44.772Z,66.17
2017-09-05T07:26:55.100Z,66.46
2017-09-05T07:28:05.175Z,66.85
2017-09-05T07:29:15.196Z,67.2
2017-09-05T07:30:25.245Z,67.11
2017-09-05T07:31:35.333Z,66.91
2017-09-05T07:32:45.673Z,67.11
2017-09-05T07:33:56.032Z,67.17
2017-09-05T07:35:06.408Z,67.4
2017-09-05T07:36:16.780Z,66.97
2017-09-05T07:37:27.276Z,67.07
2017-09-05T07:38:37.301Z,66.97
2017-09-05T07:39:47.639Z,67.07
2017-09-05T07:40:57.993Z,66.69
2017-09-05T07:42:07.728Z,66.69
2017-09-05T07:43:18.124Z,65.91
2017-09-05T07:44:28.198Z,65.95
2017-09-05T07:45:38.541Z,65.66
2017-09-05T07:46:50.830Z,65.75
2017-09-05T07:48:01.337Z,65.95
2017-09-05T07:49:11.628Z,65.85
2017-09-05T07:50:21.669Z,66.24
2017-09-05T07:51:31.706Z,66.17
2017-09-05T07:52:42.043Z,66.14
2017-09-05T07:53:52.068Z,66.08
2017-09-05T07:55:02.706Z,66.08
2017-09-05T07:56:13.091Z,65.98
2017-09-05T07:57:23.446Z,66.27
2017-09-05T07:58:33.803Z,65.98
2017-09-05T07:59:44.517Z,65.88
2017-09-05T08:00:54.614Z,66.08
2017-09-05T08:02:04.964Z,65.98
2017-09-05T08:03:14.664Z,66.27
2017-09-05T08:04:25.004Z,66.17
2017-09-05T08:05:34.725Z,66.01
2017-09-05T08:06:45.120Z,66.01
2017-09-05T08:07:55.457Z,66.01
2017-09-05T08:09:05.814Z,66.01
2017-09-05T08:10:15.881Z,65.92
2017-09-05T08:11:26.240Z,66.2
2017-09-05T08:12:35.963Z,65.82
2017-09-05T08:13:46.003Z,66.11
2017-09-05T08:14:56.027Z,65.85
2017-09-05T08:16:06.380Z,65.85
2017-09-05T08:17:16.726Z,65.95
2017-09-05T08:18:27.077Z,65.85
2017-09-05T08:19:37.123Z,65.85
2017-09-05T08:20:47.508Z,66.05
2017-09-05T08:21:57.540Z,65.85
2017-09-05T08:23:07.881Z,65.95
2017-09-05T08:24:18.311Z,65.79
2017-09-05T08:25:28.650Z,65.69
2017-09-05T08:26:39.238Z,65.88
2017-09-05T08:27:49.598Z,65.79
2017-09-05T08:28:59.968Z,65.98
2017-09-05T08:30:10.059Z,66.08
2017-09-05T08:31:20.438Z,66.08
2017-09-05T08:32:30.533Z,66.08
2017-09-05T08:33:40.259Z,66.08
2017-09-05T08:34:50.613Z,66.27
2017-09-05T08:36:01.355Z,66.27
2017-09-05T08:37:11.719Z,65.88
2017-09-05T08:38:22.066Z,65.79
2017-09-05T08:39:32.440Z,65.59
2017-09-05T08:40:42.485Z,65.82
2017-09-05T08:41:52.603Z,65.82
2017-09-05T08:43:02.969Z,65.63
2017-09-05T08:44:13.006Z,65.53
2017-09-05T08:45:23.924Z,65.63
2017-09-05T08:46:34.305Z,65.63
2017-09-05T08:47:44.736Z,66.3
2017-09-05T08:48:54.780Z,65.72
2017-09-05T08:50:04.831Z,65.66
2017-09-05T08:51:15.186Z,65.85
2017-09-05T08:52:24.935Z,65.66
2017-09-05T08:53:35.674Z,65.47
2017-09-05T08:54:48.712Z,65.66
2017-09-05T08:56:01.419Z,65.85
2017-09-05T08:57:12.971Z,66.14
2017-09-05T08:58:23.337Z,66.08
2017-09-05T08:59:34.366Z,66.08
2017-09-05T09:00:44.733Z,66.08
2017-09-05T09:01:54.768Z,65.4
2017-09-05T09:03:04.807Z,65.5
2017-09-05T09:04:15.176Z,65.24
2017-09-05T09:05:25.274Z,65.24
2017-09-05T09:06:37.821Z,65.43
2017-09-05T09:07:47.877Z,65.34
2017-09-05T09:08:58.239Z,65.63
2017-09-05T09:10:08.632Z,66.11
2017-09-05T09:11:18.736Z,65.63
2017-09-05T09:12:28.802Z,65.72
2017-09-05T09:13:39.177Z,65.53
2017-09-05T09:14:49.528Z,66.11
2017-09-05T09:15:59.903Z,66.11
2017-09-05T09:17:10.000Z,66.11
2017-09-05T09:18:22.290Z,66.11
2017-09-05T09:19:32.357Z,66.11
2017-09-05T09:20:42.731Z,65.63
2017-09-05T09:21:52.763Z,65.63
2017-09-05T09:23:03.289Z,65.53
2017-09-05T09:24:13.635Z,65.53
2017-09-05T09:25:24.224Z,65.75
2017-09-05T09:26:34.595Z,65.72
2017-09-05T09:27:44.644Z,65.72
2017-09-05T09:28:54.730Z,66.11
2017-09-05T09:30:04.774Z,66.05
2017-09-05T09:31:14.813Z,65.75
2017-09-05T09:32:25.175Z,66.11
2017-09-05T09:33:35.223Z,66.11
2017-09-05T09:34:45.613Z,66.2
2017-09-05T09:35:56.231Z,65.63
2017-09-05T09:37:06.621Z,65.75
2017-09-05T09:38:16.998Z,65.17
2017-09-05T09:39:27.045Z,65.37
2017-09-05T09:40:37.455Z,65.17
2017-09-05T09:41:47.832Z,65.27
2017-09-05T09:42:58.189Z,65.47
2017-09-05T09:44:08.554Z,65.2
2017-09-05T09:45:18.909Z,65.01
2017-09-05T09:46:29.328Z,65.11
2017-09-05T09:47:39.695Z,65.2
2017-09-05T09:48:50.049Z,65.2
2017-09-05T09:50:00.421Z,65.59
2017-09-05T09:51:10.778Z,65.4
2017-09-05T09:52:20.883Z,65.4
2017-09-05T09:53:31.243Z,65.4
2017-09-05T09:54:41.288Z,65.59
2017-09-05T09:55:51.650Z,65.59
2017-09-05T09:57:02.016Z,64.92
2017-09-05T09:58:12.462Z,64.95
2017-09-05T09:59:22.839Z,64.95
2017-09-05T10:00:33.201Z,65.33
2017-09-05T10:01:43.565Z,65.24
2017-09-05T10:02:53.930Z,65.14
2017-09-05T10:04:04.354Z,65.37
2017-09-05T10:05:14.401Z,65.24
2017-09-05T10:06:24.765Z,65.24
2017-09-05T10:07:34.821Z,65.66
2017-09-05T10:08:45.198Z,65.47
2017-09-05T10:09:55.619Z,65.56
2017-09-05T10:11:05.978Z,65.4
2017-09-05T10:12:16.034Z,65.47
2017-09-05T10:13:26.088Z,65.4
2017-09-05T10:14:36.466Z,65.3
2017-09-05T10:15:47.013Z,65.5
2017-09-05T10:16:57.368Z,65.69
2017-09-05T10:18:07.734Z,65.69
2017-09-05T10:19:17.777Z,65.69
2017-09-05T10:20:28.648Z,65.11
2017-09-05T10:21:38.788Z,65.11
2017-09-05T10:22:49.166Z,65.5
2017-09-05T10:23:59.230Z,65.69
2017-09-05T10:25:09.597Z,65.5
2017-09-05T10:26:19.970Z,65.4
2017-09-05T10:27:30.596Z,65.17
2017-09-05T10:28:40.957Z,65.59
2017-09-05T10:29:51.553Z,65.69
2017-09-05T10:31:01.927Z,65.59
2017-09-05T10:32:12.306Z,65.3
2017-09-05T10:33:22.720Z,65.59
2017-09-05T10:34:33.083Z,66.05
2017-09-05T10:35:43.456Z,65.37
2017-09-05T10:36:54.860Z,66.53
2017-09-05T10:38:05.220Z,66.11
2017-09-05T10:39:15.646Z,65.82
2017-09-05T10:40:25.375Z,65.37
2017-09-05T10:41:35.746Z,65.66
2017-09-05T10:42:46.099Z,65.59
2017-09-05T10:43:56.472Z,64.91
2017-09-05T10:45:06.557Z,65.11
2017-09-05T10:46:16.923Z,64.85
2017-09-05T10:47:27.284Z,64.85
2017-09-05T10:48:37.646Z,65.04
2017-09-05T10:49:48.002Z,65.04
2017-09-05T10:50:58.415Z,65.04
2017-09-05T10:52:08.478Z,65.08
2017-09-05T10:53:18.847Z,65.08
2017-09-05T10:54:28.891Z,65.17
2017-09-05T10:55:39.256Z,64.59
2017-09-05T10:56:49.333Z,64.59
2017-09-05T10:57:59.706Z,64.81
2017-09-05T10:59:10.078Z,64.81
2017-09-05T11:00:20.446Z,64.91
2017-09-05T11:01:30.815Z,64.52
2017-09-05T11:02:41.227Z,65.3
2017-09-05T11:03:51.284Z,65.3
2017-09-05T11:05:01.341Z,65.27
2017-09-05T11:06:11.399Z,65.01
2017-09-05T11:07:21.448Z,65.11
2017-09-05T11:08:31.867Z,64.69
2017-09-05T11:09:42.206Z,65.56
2017-09-05T11:10:52.592Z,66.47
2017-09-05T11:12:02.632Z,65.89
2017-09-05T11:13:18.257Z,65.53
2017-09-05T11:14:28.736Z,64.88
2017-09-05T11:15:38.773Z,64.72
2017-09-05T11:16:49.133Z,64.23
2017-09-05T11:17:59.165Z,64.45
2017-09-05T11:19:09.522Z,64.45
2017-09-05T11:20:24.587Z,64.45
2017-09-05T11:21:34.947Z,64.45
2017-09-05T11:22:45.314Z,64.36
2017-09-05T11:23:55.679Z,64.26
2017-09-05T11:25:06.703Z,64.84
2017-09-05T11:26:17.070Z,64.84
2017-09-05T11:27:27.448Z,64.65
2017-09-05T11:28:37.810Z,64.26
2017-09-05T11:29:47.866Z,64.94
2017-09-05T11:31:04.637Z,64.39
2017-09-05T11:32:15.016Z,64.78
2017-09-05T11:33:25.055Z,65.14
2017-09-05T11:34:35.100Z,65.53
2017-09-05T11:35:45.468Z,66.37
2017-09-05T11:36:57.237Z,66.37
2017-09-05T11:38:09.757Z,65.75
2017-09-05T11:39:20.136Z,65.4
2017-09-05T11:40:30.176Z,65.5
2017-09-05T11:41:40.536Z,65.79
2017-09-05T11:42:50.286Z,65.08
2017-09-05T11:44:00.692Z,65.4
2017-09-05T11:45:12.892Z,65.08
2017-09-05T11:46:23.262Z,63.97
2017-09-05T11:47:32.986Z,64.07
2017-09-05T11:48:43.347Z,63.32
2017-09-05T11:49:53.764Z,63.15
2017-09-05T11:51:04.332Z,64.26
2017-09-05T11:52:14.727Z,64.23
2017-09-05T11:53:25.086Z,63.54
2017-09-05T11:54:35.479Z,63.09
2017-09-05T11:55:45.881Z,63.48
2017-09-05T11:56:55.937Z,63.21
2017-09-05T11:58:05.991Z,63.02
2017-09-05T11:59:16.362Z,62.95
2017-09-05T12:00:26.415Z,62.56
2017-09-05T12:01:36.984Z,62.7
2017-09-05T12:02:47.037Z,62.33
2017-09-05T12:03:57.099Z,62.73
2017-09-05T12:05:07.461Z,63.6
2017-09-05T12:06:17.186Z,63.96
2017-09-05T12:07:27.593Z,63.64
2017-09-05T12:08:37.648Z,63.64
2017-09-05T12:09:48.274Z,62.6
2017-09-05T12:10:58.620Z,62.53
2017-09-05T12:12:08.993Z,62.95
2017-09-05T12:13:19.428Z,62.85
2017-09-05T12:14:29.785Z,63.6
2017-09-05T12:15:40.152Z,64.51
2017-09-05T12:16:50.528Z,65.36
2017-09-05T12:18:00.887Z,64.94
2017-09-05T12:19:11.253Z,65.63
2017-09-05T12:20:23.807Z,65.5
2017-09-05T12:21:34.951Z,65.3
2017-09-05T12:22:45.319Z,65.66
2017-09-05T12:23:55.684Z,65.56
2017-09-05T12:25:06.107Z,65.95
2017-09-05T12:26:16.453Z,66.5
2017-09-05T12:27:26.180Z,65.33
2017-09-05T12:28:36.565Z,65.63
2017-09-05T12:29:46.928Z,65.33
2017-09-05T12:30:57.404Z,65.72
2017-09-05T12:32:07.751Z,65.63
2017-09-05T12:33:17.854Z,65.33
2017-09-05T12:34:27.886Z,64.75
2017-09-05T12:35:38.246Z,64.39
2017-09-05T12:36:48.635Z,64.39
2017-09-05T12:37:59.003Z,64.59
2017-09-05T12:39:09.370Z,64.75
2017-09-05T12:40:19.100Z,65.33
2017-09-05T12:41:29.457Z,65.33
2017-09-05T12:42:39.872Z,65.69
2017-09-05T12:43:49.925Z,66.08
2017-09-05T12:44:59.977Z,66.24
2017-09-05T12:46:10.352Z,66.53
2017-09-05T12:47:20.722Z,66.11
2017-09-05T12:48:30.816Z,66.11
2017-09-05T12:49:40.865Z,65.92
2017-09-05T12:50:51.221Z,66.21
2017-09-05T12:52:01.277Z,65.23
2017-09-05T12:53:11.624Z,64.49
2017-09-05T12:54:22.253Z,64.32
2017-09-05T12:55:32.618Z,64.2
2017-09-05T12:56:45.429Z,64
2017-09-05T12:57:55.490Z,64.29
2017-09-05T12:59:05.852Z,64.75
2017-09-05T13:00:16.281Z,63.97
2017-09-05T13:01:26.638Z,63.81
2017-09-05T13:02:37.008Z,63.25
2017-09-05T13:03:47.365Z,63.35
2017-09-05T13:04:58.408Z,62.96
2017-09-05T13:06:08.468Z,63.18
2017-09-05T13:07:18.752Z,63.18
2017-09-05T13:08:29.176Z,64.45
2017-09-05T13:09:39.551Z,64.62
2017-09-05T13:10:49.938Z,65.07
2017-09-05T13:12:00.314Z,65.53
2017-09-05T13:13:10.417Z,65.63
2017-09-05T13:14:21.630Z,65.88
2017-09-05T13:15:31.982Z,66.27
2017-09-05T13:16:42.350Z,65.59
2017-09-05T13:17:52.725Z,65.79
2017-09-05T13:19:03.090Z,64.75
2017-09-05T13:20:13.467Z,64.55
2017-09-05T13:21:23.829Z,64.84
2017-09-05T13:22:33.867Z,65.33
2017-09-05T13:23:44.226Z,65.5
2017-09-05T13:24:54.658Z,65.79
2017-09-05T13:26:04.712Z,66.47
2017-09-05T13:27:14.748Z,66.17
2017-09-05T13:28:25.116Z,66.14
2017-09-05T13:29:35.190Z,65.56
2017-09-05T13:30:45.625Z,64.52
2017-09-05T13:31:55.663Z,64.26
2017-09-05T13:33:05.708Z,63.51
2017-09-05T13:34:16.091Z,63.15
2017-09-05T13:35:29.219Z,63.18
2017-09-05T13:36:39.689Z,63.48
2017-09-05T13:37:49.767Z,63.21
2017-09-05T13:38:59.829Z,64.09
2017-09-05T13:40:10.180Z,64.36
2017-09-05T13:41:20.540Z,64.16
2017-09-05T13:42:30.982Z,64.26
2017-09-05T13:43:41.345Z,64.19
2017-09-05T13:44:51.701Z,64.09
2017-09-05T13:46:02.065Z,64.09
2017-09-05T13:47:19.192Z,64.09
2017-09-05T13:48:33.305Z,64.39
2017-09-05T13:49:43.366Z,64.39
2017-09-05T13:50:53.744Z,64.55
2017-09-05T13:52:03.794Z,65.04
2017-09-05T13:53:14.232Z,64.65
2017-09-05T13:54:24.615Z,65.43
2017-09-05T13:55:34.984Z,66.44
2017-09-05T13:56:46.713Z,65.43
2017-09-05T13:57:57.059Z,65.46
2017-09-05T13:59:07.098Z,65.17
2017-09-05T14:00:17.154Z,65.07
2017-09-05T14:01:27.517Z,65.17
2017-09-05T14:02:37.550Z,65.26
2017-09-05T14:03:47.931Z,65.26
2017-09-05T14:04:58.354Z,65.75
2017-09-05T14:06:09.777Z,65.43
2017-09-05T14:07:20.150Z,66.66
2017-09-05T14:08:30.507Z,66.27
2017-09-05T14:09:40.562Z,65.95
2017-09-05T14:10:50.989Z,65.5
2017-09-05T14:12:01.346Z,65.01
2017-09-05T14:13:11.713Z,65.14
2017-09-05T14:14:22.098Z,65.5
2017-09-05T14:15:32.454Z,65.37
2017-09-05T14:16:42.866Z,65.2
2017-09-05T14:17:53.204Z,65.11
2017-09-05T14:19:03.597Z,64.55
2017-09-05T14:20:13.968Z,64.36
2017-09-05T14:21:24.012Z,64
2017-09-05T14:22:34.452Z,64.69
2017-09-05T14:23:44.791Z,64.2
2017-09-05T14:24:55.154Z,64.32
2017-09-05T14:26:05.519Z,64.03
2017-09-05T14:27:15.559Z,64.13
2017-09-05T14:28:25.981Z,64.52
2017-09-05T14:29:35.725Z,64.23
2017-09-05T14:30:46.091Z,65.01
2017-09-05T14:31:56.468Z,65.66
2017-09-05T14:33:06.829Z,65.14
2017-09-05T14:34:16.912Z,65.63
2017-09-05T14:35:27.284Z,65.04
2017-09-05T14:36:37.656Z,65.17
2017-09-05T14:37:49.009Z,65.04
2017-09-05T14:38:59.364Z,65.14
2017-09-05T14:40:09.724Z,65.63
2017-09-05T14:41:20.105Z,66.02
2017-09-05T14:42:30.234Z,65.98
2017-09-05T14:43:40.573Z,65.4
2017-09-05T14:44:50.936Z,65.69
2017-09-05T14:46:01.300Z,65.69
2017-09-05T14:47:11.670Z,65.5
2017-09-05T14:48:22.131Z,65.2
2017-09-05T14:49:32.475Z,66.47
2017-09-05T14:50:42.839Z,66.44
2017-09-05T14:51:53.195Z,66.4
2017-09-05T14:53:05.939Z,66.4
2017-09-05T14:54:18.734Z,66.56
2017-09-05T14:55:28.794Z,66.17
2017-09-05T14:56:38.536Z,66.37
2017-09-05T14:57:48.932Z,66.17
2017-09-05T14:58:59.217Z,66.17
2017-09-05T15:00:09.634Z,65.72
2017-09-05T15:01:20.022Z,65.53
2017-09-05T15:02:30.413Z,65.37
2017-09-05T15:03:40.797Z,65.08
2017-09-05T15:04:50.843Z,65.17
2017-09-05T15:06:01.258Z,64.49
2017-09-05T15:07:11.621Z,64.98
2017-09-05T15:08:21.995Z,64.62
2017-09-05T15:09:32.370Z,65.01
2017-09-05T15:10:42.742Z,64.62
2017-09-05T15:11:55.519Z,64.55
2017-09-05T15:13:05.813Z,64.55
2017-09-05T15:14:17.735Z,65.23
2017-09-05T15:15:28.102Z,65.4
2017-09-05T15:16:38.133Z,65.46
2017-09-05T15:17:48.638Z,65.27
2017-09-05T15:18:59.012Z,65.17
2017-09-05T15:20:16.088Z,65.46
2017-09-05T15:21:26.185Z,65.75
2017-09-05T15:22:36.564Z,65.85
2017-09-05T15:23:46.947Z,65.95
2017-09-05T15:24:57.015Z,65.92
2017-09-05T15:26:07.923Z,65.72
2017-09-05T15:27:26.309Z,66.6
2017-09-05T15:28:36.956Z,66.02
2017-09-05T15:29:47.364Z,66.27
2017-09-05T15:30:58.079Z,66.27
2017-09-05T15:32:08.442Z,66.56
2017-09-05T15:33:18.490Z,66.37
2017-09-05T15:34:28.911Z,67.24
2017-09-05T15:35:38.951Z,67.02
2017-09-05T15:36:50.227Z,67.02
2017-09-05T15:38:00.665Z,67.08
2017-09-05T15:39:10.704Z,66.99
2017-09-05T15:40:21.004Z,67.37
2017-09-05T15:41:31.769Z,66.6
2017-09-05T15:42:42.188Z,66.6
2017-09-05T15:43:52.574Z,66.11